Time;durP1;ratioP1;P1;durP2;ratioP2;P2;SDS_P1;SDS_P2;PMS_P1;PMS_P2;Temp;Humidity;BMP_temperature;BMP_pressure;BME280_temperature;BME280_humidity;BME280_pressure;Samples;Min_cycle;Max_cycle;Signal;HPM_P1;HPM_P2
2021/07/06 00:00:30;;;;;;;2.43;2.23;;;21.10;1.00;;;;;;4976678;28;20939;-64
2021/07/06 00:02:55;;;;;;;2.77;2.57;;;21.10;1.00;;;;;;4990086;28;20445;-64
2021/07/06 00:05:21;;;;;;;3.00;2.80;;;21.10;1.00;;;;;;4991310;28;20768;-63
2021/07/06 00:07:48;;;;;;;3.27;3.00;;;21.10;1.00;;;;;;4978547;28;20529;-63
2021/07/06 00:10:15;;;;;;;3.00;2.80;;;21.10;1.00;;;;;;4985836;28;20520;-64
2021/07/06 00:12:41;;;;;;;3.53;2.80;;;21.10;1.00;;;;;;4989396;28;20528;-64
2021/07/06 00:15:09;;;;;;;4.70;2.90;;;21.10;1.00;;;;;;4980316;28;20963;-65
2021/07/06 00:17:36;;;;;;;3.90;2.77;;;21.00;1.00;;;;;;4989844;28;20441;-63
2021/07/06 00:20:05;;;;;;;3.10;2.67;;;21.00;1.00;;;;;;4986540;28;20435;-63
2021/07/06 00:22:30;;;;;;;3.87;3.20;;;21.00;1.00;;;;;;4983869;28;20484;-62
2021/07/06 00:24:56;;;;;;;2.80;2.50;;;21.10;1.00;;;;;;4988375;28;20493;-64
2021/07/06 00:27:21;;;;;;;3.20;2.90;;;21.00;1.00;;;;;;4971354;28;20194;-64
2021/07/06 00:29:47;;;;;;;3.23;2.93;;;21.00;1.00;;;;;;4982152;28;20323;-64
2021/07/06 00:32:12;;;;;;;4.73;2.53;;;21.00;1.00;;;;;;4982541;28;20182;-63
2021/07/06 00:34:38;;;;;;;2.80;2.60;;;21.00;1.00;;;;;;4988531;28;20186;-63
2021/07/06 00:37:04;;;;;;;3.07;2.77;;;20.90;1.00;;;;;;4989499;28;20219;-64
2021/07/06 00:39:29;;;;;;;5.60;3.27;;;20.90;1.00;;;;;;4986217;28;20574;-63
2021/07/06 00:41:55;;;;;;;5.60;2.57;;;20.90;1.00;;;;;;4970481;28;20541;-63
2021/07/06 00:44:21;;;;;;;3.07;2.87;;;20.80;1.00;;;;;;4971286;28;20263;-63
2021/07/06 00:46:47;;;;;;;5.10;3.47;;;20.80;1.00;;;;;;4986189;28;20266;-64
2021/07/06 00:49:13;;;;;;;4.90;2.90;;;20.70;1.00;;;;;;4990682;28;20480;-63
2021/07/06 00:51:39;;;;;;;3.70;3.10;;;20.70;1.00;;;;;;4983514;28;20946;-63
2021/07/06 00:54:05;;;;;;;2.97;2.60;;;20.70;1.00;;;;;;4989299;28;20478;-63
2021/07/06 00:56:31;;;;;;;3.30;3.03;;;20.70;1.00;;;;;;4989572;28;20179;-62
2021/07/06 00:58:57;;;;;;;2.97;2.67;;;20.70;1.00;;;;;;4994809;28;20440;-62
2021/07/06 01:01:23;;;;;;;3.20;2.90;;;20.60;1.00;;;;;;4969301;28;20441;-63
2021/07/06 01:03:48;;;;;;;7.10;3.90;;;20.60;1.00;;;;;;4993673;28;20186;-62
2021/07/06 01:06:14;;;;;;;2.77;2.57;;;20.60;1.00;;;;;;4991044;28;20703;-62
2021/07/06 01:08:43;;;;;;;3.50;3.20;;;20.50;1.00;;;;;;4987196;28;20221;-65
2021/07/06 01:11:09;;;;;;;3.23;2.90;;;20.50;1.00;;;;;;4994754;28;20191;-63
2021/07/06 01:13:34;;;;;;;3.73;2.73;;;20.50;1.00;;;;;;4989859;28;20491;-63
2021/07/06 01:16:00;;;;;;;3.70;3.40;;;20.40;1.00;;;;;;4988131;28;20433;-62
2021/07/06 01:18:26;;;;;;;4.03;2.87;;;20.40;1.00;;;;;;4972511;28;20222;-64
2021/07/06 01:20:54;;;;;;;4.53;3.20;;;20.30;1.00;;;;;;4992451;28;20178;-63
2021/07/06 01:23:21;;;;;;;3.33;2.73;;;20.20;1.00;;;;;;4989936;28;20186;-63
2021/07/06 01:25:53;;;;;;;4.40;3.20;;;20.20;1.00;;;;;;4985177;28;20511;-63
2021/07/06 01:28:19;;;;;;;3.23;2.93;;;20.20;1.00;;;;;;4994120;28;20460;-63
2021/07/06 01:30:45;;;;;;;3.73;3.20;;;20.20;1.00;;;;;;4992409;28;20444;-63
2021/07/06 01:33:22;;;;;;;3.30;2.83;;;20.20;1.00;;;;;;4991018;28;20202;-64
2021/07/06 01:35:49;;;;;;;5.87;3.00;;;20.20;1.00;;;;;;4987216;28;20433;-62
2021/07/06 01:38:15;;;;;;;4.90;2.63;;;20.20;1.00;;;;;;4992010;28;20913;-63
2021/07/06 01:40:41;;;;;;;5.43;3.10;;;20.10;1.00;;;;;;4990934;28;20465;-63
2021/07/06 01:43:06;;;;;;;4.20;3.23;;;20.20;1.00;;;;;;4991467;28;20193;-62
2021/07/06 01:45:32;;;;;;;3.13;2.83;;;20.20;1.00;;;;;;4987511;28;20214;-62
2021/07/06 01:47:59;;;;;;;5.80;3.30;;;20.20;1.00;;;;;;4989848;28;20182;-63
2021/07/06 01:50:42;;;;;;;3.70;3.40;;;20.10;1.00;;;;;;4991274;28;20445;-63
2021/07/06 01:53:15;;;;;;;3.60;3.13;;;20.10;1.00;;;;;;4990541;28;20838;-62
2021/07/06 01:55:43;;;;;;;3.67;3.37;;;20.10;1.00;;;;;;4988895;28;20456;-63
2021/07/06 01:58:13;;;;;;;3.93;3.53;;;20.10;1.00;;;;;;4989630;28;20854;-63
2021/07/06 02:00:44;;;;;;;4.60;3.13;;;20.00;1.00;;;;;;4988161;28;20521;-62
2021/07/06 02:03:11;;;;;;;4.03;3.20;;;20.10;1.00;;;;;;4987430;28;20448;-65
2021/07/06 02:05:39;;;;;;;3.87;2.90;;;20.10;1.00;;;;;;4990231;28;20449;-64
2021/07/06 02:08:06;;;;;;;3.47;3.17;;;20.00;1.00;;;;;;4993150;28;20445;-63
2021/07/06 02:10:33;;;;;;;4.57;3.17;;;19.90;1.00;;;;;;4990465;28;20904;-63
2021/07/06 02:13:00;;;;;;;4.00;3.70;;;19.90;1.00;;;;;;4969818;28;20592;-64
2021/07/06 02:15:26;;;;;;;3.53;3.33;;;19.90;1.00;;;;;;4985021;28;20568;-64
2021/07/06 02:17:52;;;;;;;4.00;3.40;;;19.90;1.00;;;;;;4988443;28;20531;-64
2021/07/06 02:20:19;;;;;;;3.53;3.07;;;19.80;1.00;;;;;;4992830;28;20528;-64
2021/07/06 02:22:46;;;;;;;3.30;3.00;;;19.80;1.00;;;;;;4985345;28;20441;-63
2021/07/06 02:25:13;;;;;;;7.03;4.03;;;19.70;1.00;;;;;;4985199;28;20530;-63
2021/07/06 02:27:40;;;;;;;3.60;3.33;;;19.80;1.00;;;;;;4989653;28;20448;-64
2021/07/06 02:30:10;;;;;;;5.60;4.00;;;19.80;1.00;;;;;;4990497;28;20445;-64
2021/07/06 02:32:36;;;;;;;4.60;3.20;;;19.90;1.00;;;;;;4992057;28;20475;-64
2021/07/06 02:35:07;;;;;;;4.60;3.23;;;19.90;1.00;;;;;;4992835;28;20449;-64
2021/07/06 02:37:34;;;;;;;5.83;3.50;;;19.90;1.00;;;;;;4967294;28;20448;-64
2021/07/06 02:40:01;;;;;;;3.90;3.40;;;19.80;1.00;;;;;;4990066;28;20449;-65
2021/07/06 02:42:26;;;;;;;3.60;3.30;;;19.90;1.00;;;;;;4991432;28;20572;-63
2021/07/06 02:44:52;;;;;;;4.00;3.70;;;19.70;1.00;;;;;;4988653;28;20938;-62
2021/07/06 02:47:17;;;;;;;3.90;3.50;;;19.70;1.00;;;;;;4988221;28;20679;-63
2021/07/06 02:49:43;;;;;;;8.60;3.93;;;19.70;1.00;;;;;;4992656;28;20201;-65
2021/07/06 02:52:08;;;;;;;4.00;3.70;;;20.70;1.00;;;;;;4989727;28;20236;-64
2021/07/06 02:54:34;;;;;;;5.60;3.57;;;19.70;1.00;;;;;;4988608;28;20342;-64
2021/07/06 02:56:59;;;;;;;4.00;3.60;;;19.70;1.00;;;;;;4989637;28;20657;-64
2021/07/06 02:59:25;;;;;;;6.07;3.43;;;19.70;1.00;;;;;;4991275;28;20182;-63
2021/07/06 03:01:51;;;;;;;3.93;3.10;;;19.60;1.00;;;;;;4990765;28;20193;-63
2021/07/06 03:04:17;;;;;;;4.80;3.67;;;19.60;1.00;;;;;;4991357;28;20571;-63
2021/07/06 03:06:42;;;;;;;4.07;3.70;;;19.60;1.00;;;;;;4990279;28;20441;-64
2021/07/06 03:09:08;;;;;;;7.40;4.00;;;19.60;1.00;;;;;;4985999;28;20274;-64
2021/07/06 03:11:33;;;;;;;6.23;4.33;;;19.60;1.00;;;;;;4986021;28;20178;-64
2021/07/06 03:13:59;;;;;;;6.63;3.83;;;19.60;1.00;;;;;;4989905;28;20736;-63
2021/07/06 03:16:24;;;;;;;5.07;4.00;;;19.50;1.00;;;;;;4989368;28;20670;-62
2021/07/06 03:18:50;;;;;;;6.40;4.13;;;19.60;1.00;;;;;;4990701;28;20213;-62
2021/07/06 03:21:15;;;;;;;4.57;4.03;;;19.30;1.00;;;;;;4987486;28;20205;-63
2021/07/06 03:23:41;;;;;;;5.00;4.00;;;19.50;1.00;;;;;;4991000;28;20583;-63
2021/07/06 03:26:06;;;;;;;5.33;4.03;;;19.50;1.00;;;;;;4986978;28;20194;-66
2021/07/06 03:28:32;;;;;;;6.67;4.67;;;20.90;1.00;;;;;;4986201;28;20200;-63
2021/07/06 03:30:58;;;;;;;5.67;4.43;;;19.50;1.00;;;;;;4990923;28;20227;-63
2021/07/06 03:33:24;;;;;;;3.77;3.47;;;19.40;1.00;;;;;;4991764;28;20571;-64
2021/07/06 03:35:49;;;;;;;5.50;4.60;;;19.60;1.00;;;;;;4989767;28;20440;-63
2021/07/06 03:38:15;;;;;;;8.80;4.27;;;19.90;1.00;;;;;;4972790;28;20643;-64
2021/07/06 03:40:41;;;;;;;6.60;3.70;;;20.10;1.00;;;;;;4965617;28;20195;-63
2021/07/06 03:43:08;;;;;;;6.60;4.00;;;20.40;1.00;;;;;;4991643;28;20183;-64
2021/07/06 03:45:34;;;;;;;4.30;3.80;;;20.50;1.00;;;;;;4981900;28;20812;-64
2021/07/06 03:48:00;;;;;;;5.30;3.50;;;20.70;1.00;;;;;;4988463;28;20437;-64
2021/07/06 03:50:26;;;;;;;3.63;3.33;;;20.90;1.00;;;;;;4991368;28;20529;-64
2021/07/06 03:52:57;;;;;;;5.10;3.33;;;21.30;1.00;;;;;;4989986;28;20464;-64
2021/07/06 03:55:24;;;;;;;4.40;3.27;;;21.40;1.00;;;;;;4982482;28;20462;-64
2021/07/06 03:57:50;;;;;;;5.17;3.70;;;21.30;1.00;;;;;;4989549;28;20537;-63
2021/07/06 04:00:21;;;;;;;5.60;4.00;;;21.10;1.00;;;;;;4988205;28;20445;-63
2021/07/06 04:02:47;;;;;;;5.93;3.60;;;20.80;1.00;;;;;;4987477;28;20202;-63
2021/07/06 04:05:13;;;;;;;4.03;3.27;;;20.60;1.00;;;;;;4989758;28;20717;-64
2021/07/06 04:07:39;;;;;;;4.60;4.10;;;20.40;1.00;;;;;;4985625;28;20189;-64
2021/07/06 04:10:08;;;;;;;3.90;3.60;;;20.30;1.00;;;;;;4985418;28;20473;-63
2021/07/06 04:12:35;;;;;;;4.90;3.47;;;20.30;1.00;;;;;;4988969;28;20446;-60
2021/07/06 04:15:01;;;;;;;7.23;3.67;;;20.40;1.00;;;;;;4988609;28;20778;-61
2021/07/06 04:17:26;;;;;;;4.60;4.10;;;20.40;1.00;;;;;;4989520;28;20437;-61
2021/07/06 04:19:53;;;;;;;4.13;3.53;;;20.40;1.00;;;;;;4989559;28;20529;-61
2021/07/06 04:22:19;;;;;;;4.10;3.80;;;20.40;1.00;;;;;;4986722;28;20633;-60
2021/07/06 04:24:45;;;;;;;5.50;3.70;;;20.40;1.00;;;;;;4986974;28;20447;-62
2021/07/06 04:27:10;;;;;;;4.47;3.63;;;20.40;1.00;;;;;;4988957;28;20319;-60
2021/07/06 04:29:36;;;;;;;6.60;3.57;;;20.40;1.00;;;;;;4991183;28;20261;-60
2021/07/06 04:32:02;;;;;;;4.10;3.67;;;20.40;1.00;;;;;;4992297;28;20264;-60
2021/07/06 04:34:27;;;;;;;5.23;3.30;;;20.40;1.00;;;;;;4988010;28;20201;-62
2021/07/06 04:36:53;;;;;;;8.20;3.80;;;20.40;1.00;;;;;;4991939;28;20799;-63
2021/07/06 04:39:18;;;;;;;6.57;3.50;;;20.60;1.00;;;;;;4988277;28;20174;-61
2021/07/06 04:41:45;;;;;;;5.10;3.90;;;20.50;1.00;;;;;;4988589;28;20268;-61
2021/07/06 04:44:12;;;;;;;4.40;3.70;;;20.60;1.00;;;;;;4991973;28;20189;-62
2021/07/06 04:46:37;;;;;;;4.27;3.70;;;20.60;1.00;;;;;;4974380;28;20498;-61
2021/07/06 04:49:03;;;;;;;4.90;3.27;;;20.60;1.00;;;;;;4990391;28;20828;-62
2021/07/06 04:51:29;;;;;;;9.10;3.40;;;20.80;1.00;;;;;;4981148;28;20186;-63
2021/07/06 04:53:55;;;;;;;5.73;3.40;;;20.90;1.00;;;;;;4990396;28;20287;-65
2021/07/06 04:56:22;;;;;;;3.93;3.47;;;20.80;1.00;;;;;;4989156;28;20510;-64
2021/07/06 04:58:48;;;;;;;7.50;3.60;;;21.30;1.00;;;;;;4992819;28;20179;-64
2021/07/06 05:01:13;;;;;;;4.97;3.73;;;20.90;1.00;;;;;;4990041;28;20455;-65
2021/07/06 05:03:40;;;;;;;5.17;3.40;;;20.90;1.00;;;;;;4990878;28;20477;-64
2021/07/06 05:06:06;;;;;;;8.47;3.50;;;21.00;1.00;;;;;;4991806;28;20734;-63
2021/07/06 05:08:33;;;;;;;3.30;3.00;;;21.00;1.00;;;;;;4990290;28;20539;-63
2021/07/06 05:11:00;;;;;;;5.30;3.00;;;21.00;1.00;;;;;;4981933;28;20322;-64
2021/07/06 05:13:26;;;;;;;7.60;3.53;;;21.10;1.00;;;;;;4982883;28;20465;-64
2021/07/06 05:15:52;;;;;;;4.67;3.53;;;21.20;1.00;;;;;;4981179;28;20438;-63
2021/07/06 05:18:17;;;;;;;6.10;3.63;;;21.10;1.00;;;;;;4992326;28;20197;-65
2021/07/06 05:20:44;;;;;;;3.83;3.20;;;21.20;1.00;;;;;;4994882;28;20810;-65
2021/07/06 05:23:10;;;;;;;5.30;3.30;;;21.30;1.00;;;;;;4992610;28;20174;-61
2021/07/06 05:25:35;;;;;;;3.13;2.87;;;21.50;1.00;;;;;;4990684;28;20491;-63
2021/07/06 05:28:01;;;;;;;6.20;3.37;;;21.60;1.00;;;;;;4986797;28;20190;-64
2021/07/06 05:30:26;;;;;;;5.83;3.30;;;21.70;1.00;;;;;;4987505;28;20200;-66
2021/07/06 05:32:52;;;;;;;5.40;2.80;;;21.80;1.00;;;;;;4990333;28;20655;-65
2021/07/06 05:35:18;;;;;;;3.07;2.87;;;21.90;1.00;;;;;;4986398;28;20175;-63
2021/07/06 05:37:43;;;;;;;5.70;3.00;;;21.90;1.00;;;;;;4991077;28;20308;-65
2021/07/06 05:40:10;;;;;;;3.97;3.37;;;22.00;1.00;;;;;;4991583;28;20182;-63
2021/07/06 05:42:37;;;;;;;6.53;3.27;;;22.10;1.00;;;;;;4987903;28;20670;-64
2021/07/06 05:45:05;;;;;;;3.97;3.00;;;22.20;1.00;;;;;;4989586;28;20464;-62
2021/07/06 05:47:35;;;;;;;3.63;3.07;;;22.30;1.00;;;;;;4989856;28;20429;-64
2021/07/06 05:50:06;;;;;;;4.10;3.70;;;22.40;1.00;;;;;;4987211;28;20454;-64
2021/07/06 05:52:32;;;;;;;4.00;2.60;;;22.50;1.00;;;;;;4991584;28;20449;-64
2021/07/06 05:54:57;;;;;;;3.40;2.70;;;22.60;1.00;;;;;;4987316;28;20448;-63
2021/07/06 05:57:32;;;;;;;3.07;2.80;;;22.70;1.00;;;;;;4988723;28;20412;-62
2021/07/06 06:00:04;;;;;;;5.20;3.00;;;22.70;1.00;;;;;;4990297;28;20244;-64
2021/07/06 06:02:29;;;;;;;3.70;3.40;;;22.70;1.00;;;;;;4989200;28;20441;-65
2021/07/06 06:04:55;;;;;;;3.00;2.53;;;22.80;1.00;;;;;;4988337;28;20516;-65
2021/07/06 06:07:23;;;;;;;5.83;3.77;;;22.90;1.00;;;;;;4990566;28;20536;-65
2021/07/06 06:09:48;;;;;;;9.83;4.10;;;23.00;1.00;;;;;;4984408;28;20222;-64
2021/07/06 06:12:14;;;;;;;37.37;9.10;;;23.10;1.00;;;;;;4989048;28;20874;-64
2021/07/06 06:14:40;;;;;;;7.03;3.73;;;23.10;1.00;;;;;;4984466;28;20225;-67
2021/07/06 06:17:05;;;;;;;5.87;2.60;;;23.20;1.00;;;;;;4983335;28;20536;-63
2021/07/06 06:19:31;;;;;;;9.30;2.87;;;23.20;1.00;;;;;;4987464;28;20213;-63
2021/07/06 06:21:57;;;;;;;4.20;2.87;;;23.30;1.00;;;;;;4987602;28;20185;-64
2021/07/06 06:24:23;;;;;;;4.60;4.13;;;23.30;1.00;;;;;;4988588;28;20450;-63
2021/07/06 06:26:49;;;;;;;3.27;2.50;;;23.40;1.00;;;;;;4988098;28;20221;-65
2021/07/06 06:29:15;;;;;;;4.50;2.30;;;23.40;1.00;;;;;;4987016;28;20183;-63
2021/07/06 06:31:41;;;;;;;4.23;2.80;;;23.60;1.00;;;;;;4988374;28;20420;-63
2021/07/06 06:34:07;;;;;;;4.53;2.70;;;23.70;1.00;;;;;;4981463;28;20873;-64
2021/07/06 06:36:32;;;;;;;3.60;3.30;;;23.80;1.00;;;;;;4992471;28;20905;-63
2021/07/06 06:39:00;;;;;;;3.30;3.00;;;24.00;1.00;;;;;;4988793;28;20237;-67
2021/07/06 06:41:26;;;;;;;4.23;3.10;;;25.10;1.00;;;;;;4990090;28;20182;-65
2021/07/06 06:43:53;;;;;;;3.37;3.07;;;24.30;1.00;;;;;;4987217;28;20457;-64
2021/07/06 06:46:20;;;;;;;5.13;3.27;;;24.30;1.00;;;;;;4988443;28;20179;-64
2021/07/06 06:48:45;;;;;;;3.03;2.77;;;24.30;1.00;;;;;;4989110;28;20867;-64
2021/07/06 06:51:11;;;;;;;3.13;2.77;;;24.50;1.00;;;;;;4991639;28;20528;-63
2021/07/06 06:53:37;;;;;;;5.60;3.30;;;24.50;1.00;;;;;;4988873;28;20232;-64
2021/07/06 06:56:03;;;;;;;4.10;3.00;;;24.60;1.00;;;;;;4989873;28;20465;-66
2021/07/06 06:58:29;;;;;;;4.60;3.03;;;24.80;1.00;;;;;;4982103;28;20175;-65
2021/07/06 07:00:54;;;;;;;3.50;3.20;;;25.00;1.00;;;;;;4989852;28;20265;-66
2021/07/06 07:03:20;;;;;;;3.80;3.03;;;25.10;1.00;;;;;;4989582;28;20214;-64
2021/07/06 07:05:45;;;;;;;3.30;3.00;;;25.20;1.00;;;;;;4985469;28;20199;-66
2021/07/06 07:08:11;;;;;;;5.50;3.07;;;25.40;1.00;;;;;;4989343;28;20252;-65
2021/07/06 07:10:39;;;;;;;3.50;3.20;;;25.80;1.00;;;;;;4982761;28;20234;-64
2021/07/06 07:13:05;;;;;;;4.70;3.30;;;25.60;1.00;;;;;;4990941;28;20256;-66
2021/07/06 07:15:30;;;;;;;3.67;3.30;;;25.60;1.00;;;;;;4988172;28;20458;-64
2021/07/06 07:17:56;;;;;;;4.03;2.80;;;25.60;1.00;;;;;;4988414;28;20484;-65
2021/07/06 07:20:21;;;;;;;4.10;3.80;;;25.60;1.00;;;;;;4984377;28;20198;-65
2021/07/06 07:22:47;;;;;;;4.10;3.40;;;25.60;1.00;;;;;;4989963;28;20713;-65
2021/07/06 07:25:13;;;;;;;4.73;3.20;;;25.70;1.00;;;;;;4990204;28;20230;-65
2021/07/06 07:27:39;;;;;;;3.50;3.20;;;25.80;1.00;;;;;;4987917;28;20639;-64
2021/07/06 07:30:07;;;;;;;2.87;2.53;;;25.80;1.00;;;;;;4991675;28;20419;-66
2021/07/06 07:32:32;;;;;;;3.60;3.13;;;25.90;1.00;;;;;;4987222;28;20666;-65
2021/07/06 07:34:58;;;;;;;2.73;2.50;;;26.10;1.00;;;;;;4990707;28;20437;-65
2021/07/06 07:37:24;;;;;;;3.30;2.90;;;26.20;1.00;;;;;;4980847;28;20218;-63
2021/07/06 07:39:49;;;;;;;2.87;2.67;;;26.10;1.00;;;;;;4984667;28;20692;-65
2021/07/06 07:42:19;;;;;;;3.77;2.90;;;26.20;1.00;;;;;;4990049;28;20194;-64
2021/07/06 07:44:45;;;;;;;4.80;3.00;;;26.40;1.00;;;;;;4991467;28;20184;-65
2021/07/06 07:47:10;;;;;;;4.80;2.40;;;26.60;1.00;;;;;;4988569;28;20450;-62
2021/07/06 07:49:37;;;;;;;2.80;2.50;;;26.50;1.00;;;;;;4989481;28;20193;-65
2021/07/06 07:52:02;;;;;;;2.90;2.23;;;26.60;1.00;;;;;;4986411;28;20305;-64
2021/07/06 07:54:28;;;;;;;2.40;2.00;;;26.60;1.00;;;;;;4990108;28;20436;-65
2021/07/06 07:56:53;;;;;;;2.40;2.20;;;26.70;1.00;;;;;;4990219;28;20670;-65
2021/07/06 07:59:19;;;;;;;2.70;2.20;;;26.80;1.00;;;;;;4988827;28;20177;-63
2021/07/06 08:01:45;;;;;;;2.80;2.03;;;26.90;1.00;;;;;;4990017;28;20182;-64
2021/07/06 08:04:10;;;;;;;2.83;2.50;;;26.90;1.00;;;;;;4986092;28;20185;-64
2021/07/06 08:06:36;;;;;;;2.87;2.23;;;26.90;1.00;;;;;;4985414;28;20190;-63
2021/07/06 08:09:02;;;;;;;2.00;1.80;;;27.00;1.00;;;;;;4988431;28;20194;-64
2021/07/06 08:11:27;;;;;;;2.20;1.73;;;27.10;1.00;;;;;;4988479;28;20552;-63
2021/07/06 08:13:53;;;;;;;1.80;1.70;;;27.20;1.00;;;;;;4989714;28;20552;-63
2021/07/06 08:16:18;;;;;;;4.20;1.97;;;27.20;1.00;;;;;;4990060;28;20201;-64
2021/07/06 08:18:44;;;;;;;1.93;1.73;;;27.30;1.00;;;;;;4987320;28;20182;-62
2021/07/06 08:21:10;;;;;;;1.77;1.50;;;27.40;1.00;;;;;;4985694;28;20213;-64
2021/07/06 08:23:36;;;;;;;1.97;1.70;;;27.50;1.00;;;;;;4984203;28;20563;-63
2021/07/06 08:26:02;;;;;;;1.40;1.30;;;27.60;1.00;;;;;;4990966;28;20436;-63
2021/07/06 08:28:27;;;;;;;1.63;1.53;;;27.70;1.00;;;;;;4989656;28;20190;-66
2021/07/06 08:30:54;;;;;;;1.70;1.60;;;27.80;1.00;;;;;;4973268;28;20229;-65
2021/07/06 08:33:19;;;;;;;1.90;1.70;;;28.00;1.00;;;;;;4990920;28;20214;-64
2021/07/06 08:35:46;;;;;;;2.60;1.50;;;28.10;1.00;;;;;;4985252;28;20531;-64
2021/07/06 08:38:13;;;;;;;1.53;1.43;;;28.20;1.00;;;;;;4990722;28;20191;-64
2021/07/06 08:40:41;;;;;;;2.20;1.60;;;28.30;1.00;;;;;;4990656;28;20441;-62
2021/07/06 08:43:06;;;;;;;2.03;1.50;;;28.30;1.00;;;;;;4991082;28;20411;-63
2021/07/06 08:45:33;;;;;;;2.00;1.73;;;28.20;1.00;;;;;;4991015;28;20448;-62
2021/07/06 08:47:59;;;;;;;1.87;1.30;;;28.10;1.00;;;;;;4990979;28;20441;-62
2021/07/06 08:50:25;;;;;;;2.03;1.90;;;28.30;1.00;;;;;;4990869;28;20445;-66
2021/07/06 08:52:52;;;;;;;1.77;1.50;;;28.40;1.00;;;;;;4990715;28;20256;-65
2021/07/06 08:55:19;;;;;;;2.10;1.33;;;28.60;1.00;;;;;;4987335;28;20441;-63
2021/07/06 08:57:46;;;;;;;1.53;1.43;;;28.50;1.00;;;;;;4989866;28;20784;-63
2021/07/06 09:00:15;;;;;;;1.60;1.40;;;28.50;1.00;;;;;;4990930;28;20552;-63
2021/07/06 09:02:40;;;;;;;1.73;1.60;;;28.30;1.00;;;;;;4990588;28;20441;-62
2021/07/06 09:05:19;;;;;;;2.13;1.30;;;28.30;1.00;;;;;;4990787;28;20460;-62
2021/07/06 09:07:45;;;;;;;9.93;2.10;;;28.20;1.00;;;;;;4990817;28;20766;-64
2021/07/06 09:10:16;;;;;;;2.50;1.80;;;28.30;1.00;;;;;;4983278;28;20485;-65
2021/07/06 09:12:44;;;;;;;6.00;2.77;;;28.50;1.00;;;;;;4981114;28;20198;-63
2021/07/06 09:15:23;;;;;;;8.90;2.80;;;28.80;1.00;;;;;;4986225;28;20940;-60
2021/07/06 09:18:03;;;;;;;1.50;1.40;;;28.80;1.00;;;;;;4992756;28;20453;-61
2021/07/06 09:20:28;;;;;;;20.20;4.23;;;28.90;1.00;;;;;;4994004;28;20934;-61
2021/07/06 09:23:27;;;;;;;9.93;2.23;;;28.90;1.00;;;;;;4991101;28;20591;-62
2021/07/06 09:26:05;;;;;;;3.30;1.67;;;29.10;1.00;;;;;;5002753;28;20331;-61
2021/07/06 09:28:36;;;;;;;1.93;1.60;;;29.20;1.00;;;;;;5008542;28;20447;-62
2021/07/06 09:31:18;;;;;;;2.87;1.53;;;29.30;1.00;;;;;;5013550;28;20927;-63
2021/07/06 09:33:50;;;;;;;1.63;1.53;;;29.30;1.00;;;;;;5007840;28;20497;-60
2021/07/06 09:36:48;;;;;;;1.60;1.33;;;29.10;1.00;;;;;;4987908;28;20513;-60
2021/07/06 09:39:23;;;;;;;2.30;1.57;;;29.10;1.00;;;;;;4993283;28;20411;-63
2021/07/06 09:42:04;;;;;;;1.97;1.77;;;29.10;1.00;;;;;;5013119;28;20440;-63
2021/07/06 09:44:32;;;;;;;3.00;1.70;;;29.10;1.00;;;;;;5012067;28;20528;-63
2021/07/06 09:47:08;;;;;;;5.50;1.63;;;29.30;1.00;;;;;;5004409;28;20452;-62
2021/07/06 09:49:36;;;;;;;2.93;1.50;;;29.60;1.00;;;;;;5006644;28;20801;-62
2021/07/06 09:52:16;;;;;;;2.37;1.60;;;29.60;1.00;;;;;;5011119;28;20449;-63
2021/07/06 09:54:44;;;;;;;2.53;1.60;;;29.50;1.00;;;;;;5011542;28;20532;-61
2021/07/06 09:57:27;;;;;;;3.10;1.57;;;29.70;1.00;;;;;;5010454;28;20417;-62
2021/07/06 10:00:00;;;;;;;3.70;1.70;;;29.40;1.00;;;;;;5007313;28;20988;-61
2021/07/06 10:02:28;;;;;;;1.60;1.50;;;29.40;1.00;;;;;;5002264;28;20407;-62
2021/07/06 10:04:54;;;;;;;1.30;1.20;;;29.60;1.00;;;;;;5007367;28;20781;-61
2021/07/06 10:07:28;;;;;;;4.43;1.67;;;29.90;1.00;;;;;;5009954;28;20411;-60
2021/07/06 10:09:54;;;;;;;3.97;1.97;;;29.80;1.00;;;;;;5006343;28;20407;-59
2021/07/06 10:12:22;;;;;;;3.43;1.57;;;29.80;1.00;;;;;;5005433;28;20477;-60
2021/07/06 10:14:48;;;;;;;1.70;1.50;;;29.80;1.00;;;;;;5007379;28;20486;-61
2021/07/06 10:17:14;;;;;;;2.40;1.77;;;30.00;1.00;;;;;;5004571;28;20437;-61
2021/07/06 10:19:42;;;;;;;2.53;1.60;;;30.20;1.00;;;;;;5011640;28;20432;-62
2021/07/06 10:22:08;;;;;;;2.43;1.60;;;30.30;1.00;;;;;;5009837;28;20462;-62
2021/07/06 10:24:43;;;;;;;1.70;1.40;;;29.80;1.00;;;;;;5006836;28;20464;-63
2021/07/06 10:27:22;;;;;;;2.27;1.93;;;29.70;1.00;;;;;;5010483;28;20425;-61
2021/07/06 10:30:04;;;;;;;1.90;1.80;;;29.70;1.00;;;;;;4995859;28;20458;-63
2021/07/06 10:32:52;;;;;;;2.07;1.80;;;29.70;1.00;;;;;;5011577;28;20935;-62
2021/07/06 10:35:39;;;;;;;1.70;1.60;;;30.00;1.00;;;;;;5012074;28;20444;-62
2021/07/06 10:38:26;;;;;;;2.20;1.77;;;29.90;1.00;;;;;;5006141;28;20510;-59
2021/07/06 10:41:03;;;;;;;2.50;1.50;;;30.10;1.00;;;;;;5001095;28;20782;-61
2021/07/06 10:43:49;;;;;;;2.50;1.50;;;30.20;1.00;;;;;;5010026;28;21006;-60
2021/07/06 10:46:20;;;;;;;5.23;1.80;;;30.30;1.00;;;;;;5004722;28;20491;-61
2021/07/06 10:48:48;;;;;;;2.23;1.60;;;30.30;1.00;;;;;;5009293;28;20437;-62
2021/07/06 10:51:38;;;;;;;6.80;2.17;;;30.30;1.00;;;;;;5009399;28;20446;-63
2021/07/06 10:54:11;;;;;;;2.30;1.60;;;30.40;1.00;;;;;;5005418;28;20465;-59
2021/07/06 10:56:46;;;;;;;2.33;1.40;;;30.40;1.00;;;;;;5005017;28;20540;-59
2021/07/06 10:59:35;;;;;;;2.20;1.30;;;30.40;1.00;;;;;;5009196;28;20414;-60
2021/07/06 11:02:21;;;;;;;2.00;1.67;;;30.50;1.00;;;;;;5002599;28;20415;-60
2021/07/06 11:04:47;;;;;;;2.73;1.70;;;30.70;1.00;;;;;;5004550;28;20463;-59
2021/07/06 11:07:37;;;;;;;2.20;1.47;;;30.70;1.00;;;;;;5000208;28;20528;-59
2021/07/06 11:10:05;;;;;;;1.60;1.50;;;30.60;1.00;;;;;;5008243;28;20181;-61
2021/07/06 11:12:42;;;;;;;2.90;1.50;;;30.50;1.00;;;;;;5008345;28;20415;-60
2021/07/06 11:15:21;;;;;;;1.90;1.33;;;30.60;1.00;;;;;;5002856;28;20479;-61
2021/07/06 11:17:57;;;;;;;2.20;1.40;;;30.50;1.00;;;;;;5002389;28;20450;-59
2021/07/06 11:20:46;;;;;;;1.80;1.40;;;30.50;1.00;;;;;;5008890;28;20426;-61
2021/07/06 11:23:29;;;;;;;1.67;1.30;;;30.60;1.00;;;;;;5006965;28;20872;-60
2021/07/06 11:26:04;;;;;;;3.00;1.73;;;30.60;1.00;;;;;;4995674;28;20488;-60
2021/07/06 11:28:31;;;;;;;3.20;1.30;;;30.40;1.00;;;;;;4998816;28;20776;-60
2021/07/06 11:30:59;;;;;;;4.27;1.70;;;30.40;1.00;;;;;;4999245;28;20447;-60
2021/07/06 11:33:36;;;;;;;1.53;1.20;;;30.70;1.00;;;;;;5003347;28;20473;-60
2021/07/06 11:36:05;;;;;;;3.00;1.30;;;30.70;1.00;;;;;;5000446;28;20447;-59
2021/07/06 11:38:37;;;;;;;1.60;1.37;;;30.50;1.00;;;;;;5009484;28;20429;-59
2021/07/06 11:41:05;;;;;;;1.43;1.33;;;30.60;1.00;;;;;;5006576;28;20790;-61
2021/07/06 11:43:33;;;;;;;4.10;1.53;;;30.80;1.00;;;;;;5006523;28;20510;-59
2021/07/06 11:46:10;;;;;;;1.67;1.20;;;31.00;1.00;;;;;;5005665;28;20487;-60
2021/07/06 11:48:38;;;;;;;1.10;1.00;;;31.00;1.00;;;;;;5002917;28;20505;-60
2021/07/06 11:51:12;;;;;;;1.57;1.47;;;30.90;1.00;;;;;;5005360;28;20444;-61
2021/07/06 11:53:41;;;;;;;1.37;1.00;;;31.00;1.00;;;;;;5002602;28;20599;-59
2021/07/06 11:56:08;;;;;;;1.10;1.00;;;31.00;1.00;;;;;;5005094;28;20937;-61
2021/07/06 11:58:35;;;;;;;2.40;1.30;;;31.00;1.00;;;;;;5009326;28;20914;-61
2021/07/06 12:01:13;;;;;;;2.93;1.53;;;30.90;1.00;;;;;;5002486;28;20408;-60
2021/07/06 12:03:40;;;;;;;1.70;1.10;;;31.10;1.00;;;;;;5003105;28;20995;-59
2021/07/06 12:06:07;;;;;;;3.43;1.63;;;31.30;1.00;;;;;;5000012;28;21167;-61
2021/07/06 12:08:39;;;;;;;1.40;1.30;;;31.40;1.00;;;;;;5000914;28;20444;-60
2021/07/06 12:11:09;;;;;;;2.60;2.20;;;31.00;1.00;;;;;;4997708;28;20968;-61
2021/07/06 12:13:40;;;;;;;1.40;1.30;;;31.00;1.00;;;;;;5004814;28;20923;-60
2021/07/06 12:16:11;;;;;;;1.20;1.00;;;31.20;1.00;;;;;;5004126;28;20440;-59
2021/07/06 12:18:47;;;;;;;1.50;1.20;;;31.30;1.00;;;;;;5004179;28;20455;-59
2021/07/06 12:21:23;;;;;;;1.23;1.13;;;31.40;1.00;;;;;;5001077;28;20449;-60
2021/07/06 12:23:48;;;;;;;1.90;1.13;;;31.20;1.00;;;;;;5009151;28;20447;-62
2021/07/06 12:26:15;;;;;;;1.47;1.00;;;31.20;1.00;;;;;;4999514;28;20487;-60
2021/07/06 12:28:41;;;;;;;1.27;1.17;;;31.50;1.00;;;;;;5007297;28;20228;-61
2021/07/06 12:31:30;;;;;;;1.27;1.10;;;31.00;1.00;;;;;;5001305;28;20829;-61
2021/07/06 12:34:13;;;;;;;2.30;1.83;;;31.00;1.00;;;;;;5000419;28;20479;-61
2021/07/06 12:36:44;;;;;;;1.50;1.40;;;31.00;1.00;;;;;;5004923;28;21055;-62
2021/07/06 12:39:33;;;;;;;2.20;1.30;;;31.10;1.00;;;;;;4998394;28;20476;-61
2021/07/06 12:42:08;;;;;;;1.00;0.80;;;31.20;1.00;;;;;;4999780;28;20440;-60
2021/07/06 12:44:44;;;;;;;1.00;0.90;;;31.10;1.00;;;;;;5005057;28;20426;-60
2021/07/06 12:47:31;;;;;;;1.03;1.03;;;31.10;1.00;;;;;;5002282;28;20850;-60
2021/07/06 12:50:14;;;;;;;1.23;1.10;;;31.20;1.00;;;;;;4999759;28;20418;-63
2021/07/06 12:52:47;;;;;;;1.37;1.27;;;31.40;1.00;;;;;;4996986;28;20439;-61
2021/07/06 12:55:16;;;;;;;2.93;1.20;;;31.70;1.00;;;;;;5009613;28;20464;-61
2021/07/06 12:57:43;;;;;;;1.70;1.60;;;31.70;1.00;;;;;;5005316;28;20790;-60
2021/07/06 13:00:14;;;;;;;1.20;1.00;;;31.60;1.00;;;;;;5011190;28;20652;-63
2021/07/06 13:02:41;;;;;;;6.20;1.43;;;31.60;1.00;;;;;;5006585;28;20419;-60
2021/07/06 13:05:28;;;;;;;1.47;0.97;;;31.60;1.00;;;;;;5013272;28;20436;-60